Burry Port, United Kingdom
Current Conditions -  °F | °C
As of 9:50 AM on Monday 26 Jan 2015 (Local Time) from EGOP Reporting Station
Broken Clouds Broken Clouds  
Wind Chill:   Ceiling: 25000
Heat Index:   Visibility: 6mi
Dew Point:   Wind: 13mph
Humidity: 81%   Direction: 320°NW
Pressure: 30.3"   Gusts: NA
Location:  51.68°N, 4.25°W
Report Text: EGOP 260950Z 32011KT 9999 FEW041 BKN250 07/04 Q1026 BLU
Loading
Personal Weather Stations






























Interactive Weather Map New forecast layout! Learn more

10-Day Weather Forecast

Advertisements
Track Severe Weather on mobile